sensor_id;sensor_type;location;lat;lon;timestamp;pressure;altitude;pressure_sealevel;temperature
76713;BMP280;65640;43.154;25.658;2023-02-01T00:01:55;100750.44;;;3.15
76713;BMP280;65640;43.154;25.658;2023-02-01T00:04:21;100740.88;;;3.16
76713;BMP280;65640;43.154;25.658;2023-02-01T00:06:46;100746.25;;;3.14
76713;BMP280;65640;43.154;25.658;2023-02-01T00:09:12;100744.66;;;3.13
76713;BMP280;65640;43.154;25.658;2023-02-01T00:11:38;100747.84;;;3.15
76713;BMP280;65640;43.154;25.658;2023-02-01T00:14:03;100745.81;;;3.17
76713;BMP280;65640;43.154;25.658;2023-02-01T00:16:30;100747.84;;;3.15
76713;BMP280;65640;43.154;25.658;2023-02-01T00:21:23;100747.41;;;3.18
76713;BMP280;65640;43.154;25.658;2023-02-01T00:23:48;100746.59;;;3.18
76713;BMP280;65640;43.154;25.658;2023-02-01T00:26:16;100743.81;;;3.20
76713;BMP280;65640;43.154;25.658;2023-02-01T00:28:42;100744.63;;;3.20
76713;BMP280;65640;43.154;25.658;2023-02-01T00:31:08;100742.81;;;3.21
76713;BMP280;65640;43.154;25.658;2023-02-01T00:33:33;100749.78;;;3.20
76713;BMP280;65640;43.154;25.658;2023-02-01T00:36:01;100739.44;;;3.20
76713;BMP280;65640;43.154;25.658;2023-02-01T00:38:28;100743.03;;;3.19
76713;BMP280;65640;43.154;25.658;2023-02-01T00:40:54;100748.63;;;3.16
76713;BMP280;65640;43.154;25.658;2023-02-01T00:43:20;100743.81;;;3.20
76713;BMP280;65640;43.154;25.658;2023-02-01T00:45:46;100737.91;;;3.12
76713;BMP280;65640;43.154;25.658;2023-02-01T00:48:11;100739.06;;;3.16
76713;BMP280;65640;43.154;25.658;2023-02-01T00:50:44;100738.06;;;3.17
76713;BMP280;65640;43.154;25.658;2023-02-01T00:53:10;100736.47;;;3.16
76713;BMP280;65640;43.154;25.658;2023-02-01T00:55:36;100733.69;;;3.18
76713;BMP280;65640;43.154;25.658;2023-02-01T00:58:01;100736.84;;;3.20
76713;BMP280;65640;43.154;25.658;2023-02-01T01:00:27;100734.22;;;3.27
76713;BMP280;65640;43.154;25.658;2023-02-01T01:02:52;100738.19;;;3.29
76713;BMP280;65640;43.154;25.658;2023-02-01T01:05:18;100733.41;;;3.26
76713;BMP280;65640;43.154;25.658;2023-02-01T01:07:44;100732.81;;;3.31
76713;BMP280;65640;43.154;25.658;2023-02-01T01:10:09;100722.06;;;3.34
76713;BMP280;65640;43.154;25.658;2023-02-01T01:12:35;100730.81;;;3.33
76713;BMP280;65640;43.154;25.658;2023-02-01T01:15:00;100735.13;;;3.39
76713;BMP280;65640;43.154;25.658;2023-02-01T01:17:26;100734.38;;;3.38
76713;BMP280;65640;43.154;25.658;2023-02-01T01:19:51;100732.00;;;3.37
76713;BMP280;65640;43.154;25.658;2023-02-01T01:22:17;100731.59;;;3.33
76713;BMP280;65640;43.154;25.658;2023-02-01T01:24:43;100736.19;;;3.31
76713;BMP280;65640;43.154;25.658;2023-02-01T01:27:08;100734.41;;;3.32
76713;BMP280;65640;43.154;25.658;2023-02-01T01:29:34;100731.03;;;3.25
76713;BMP280;65640;43.154;25.658;2023-02-01T01:31:59;100721.88;;;3.29
76713;BMP280;65640;43.154;25.658;2023-02-01T01:34:25;100720.69;;;3.25
76713;BMP280;65640;43.154;25.658;2023-02-01T01:36:50;100723.47;;;3.23
76713;BMP280;65640;43.154;25.658;2023-02-01T01:39:16;100728.66;;;3.23
76713;BMP280;65640;43.154;25.658;2023-02-01T01:41:41;100725.72;;;3.20
76713;BMP280;65640;43.154;25.658;2023-02-01T01:47:10;100725.72;;;3.20
76713;BMP280;65640;43.154;25.658;2023-02-01T01:49:36;100725.72;;;3.20
76713;BMP280;65640;43.154;25.658;2023-02-01T01:52:03;100725.13;;;3.17
76713;BMP280;65640;43.154;25.658;2023-02-01T01:54:33;100729.31;;;3.18
76713;BMP280;65640;43.154;25.658;2023-02-01T01:57:09;100736.69;;;3.15
76713;BMP280;65640;43.154;25.658;2023-02-01T01:59:38;100729.94;;;3.14
76713;BMP280;65640;43.154;25.658;2023-02-01T02:02:05;100735.13;;;3.14
76713;BMP280;65640;43.154;25.658;2023-02-01T02:04:32;100727.94;;;3.16
76713;BMP280;65640;43.154;25.658;2023-02-01T02:07:10;100724.59;;;3.09
76713;BMP280;65640;43.154;25.658;2023-02-01T02:09:37;100733.53;;;3.13
76713;BMP280;65640;43.154;25.658;2023-02-01T02:12:03;100734.72;;;3.10
76713;BMP280;65640;43.154;25.658;2023-02-01T02:14:29;100731.16;;;3.11
76713;BMP280;65640;43.154;25.658;2023-02-01T02:23:06;100728.16;;;3.08
76713;BMP280;65640;43.154;25.658;2023-02-01T02:25:59;100742.88;;;3.07
76713;BMP280;65640;43.154;25.658;2023-02-01T02:36:53;100733.19;;;2.96
76713;BMP280;65640;43.154;25.658;2023-02-01T02:45:30;100748.38;;;2.86
76713;BMP280;65640;43.154;25.658;2023-02-01T02:48:30;100751.94;;;2.92
76713;BMP280;65640;43.154;25.658;2023-02-01T02:51:19;100758.91;;;2.91
76713;BMP280;65640;43.154;25.658;2023-02-01T02:54:19;100754.72;;;2.90
76713;BMP280;65640;43.154;25.658;2023-02-01T02:57:08;100758.31;;;2.89
76713;BMP280;65640;43.154;25.658;2023-02-01T02:59:56;100761.88;;;2.88
76713;BMP280;65640;43.154;25.658;2023-02-01T03:02:41;100755.31;;;2.92
76713;BMP280;65640;43.154;25.658;2023-02-01T03:05:25;100758.91;;;2.91
76713;BMP280;65640;43.154;25.658;2023-02-01T03:10:48;100753.28;;;2.94
76713;BMP280;65640;43.154;25.658;2023-02-01T03:13:41;100754.31;;;2.93
76713;BMP280;65640;43.154;25.658;2023-02-01T03:16:25;100761.03;;;2.94
76713;BMP280;65640;43.154;25.658;2023-02-01T03:18:58;100767.66;;;2.90
76713;BMP280;65640;43.154;25.658;2023-02-01T03:22:05;100763.28;;;2.84
76713;BMP280;65640;43.154;25.658;2023-02-01T03:25:05;100768.25;;;2.86
76713;BMP280;65640;43.154;25.658;2023-02-01T03:27:36;100768.84;;;2.81
76713;BMP280;65640;43.154;25.658;2023-02-01T03:32:44;100768.25;;;2.86
76713;BMP280;65640;43.154;25.658;2023-02-01T03:38:01;100772.25;;;2.81
76713;BMP280;65640;43.154;25.658;2023-02-01T03:40:32;100769.44;;;2.83
76713;BMP280;65640;43.154;25.658;2023-02-01T03:43:01;100780.59;;;2.84
76713;BMP280;65640;43.154;25.658;2023-02-01T03:45:34;100786.75;;;2.83
76713;BMP280;65640;43.154;25.658;2023-02-01T03:48:02;100784.94;;;2.90
76713;BMP280;65640;43.154;25.658;2023-02-01T03:50:29;100781.97;;;2.86
76713;BMP280;65640;43.154;25.658;2023-02-01T03:53:04;100786.75;;;2.89
76713;BMP280;65640;43.154;25.658;2023-02-01T03:55:31;100792.50;;;2.91
76713;BMP280;65640;43.154;25.658;2023-02-01T03:58:03;100792.50;;;2.91
76713;BMP280;65640;43.154;25.658;2023-02-01T04:00:30;100789.66;;;2.99
76713;BMP280;65640;43.154;25.658;2023-02-01T04:02:55;100787.66;;;3.01
76713;BMP280;65640;43.154;25.658;2023-02-01T04:05:21;100785.66;;;3.03
76713;BMP280;65640;43.154;25.658;2023-02-01T04:07:47;100787.25;;;3.04
76713;BMP280;65640;43.154;25.658;2023-02-01T04:10:13;100792.00;;;3.14
76713;BMP280;65640;43.154;25.658;2023-02-01T04:12:39;100791.22;;;3.45
76713;BMP280;65640;43.154;25.658;2023-02-01T04:15:05;100788.47;;;3.71
76713;BMP280;65640;43.154;25.658;2023-02-01T04:17:30;100790.47;;;3.69
76713;BMP280;65640;43.154;25.658;2023-02-01T04:19:56;100787.22;;;3.49
76713;BMP280;65640;43.154;25.658;2023-02-01T04:22:22;100795.06;;;3.36
76713;BMP280;65640;43.154;25.658;2023-02-01T04:24:47;100797.88;;;3.28
76713;BMP280;65640;43.154;25.658;2023-02-01T04:27:13;100795.91;;;3.23
76713;BMP280;65640;43.154;25.658;2023-02-01T04:29:38;100797.97;;;3.14
76713;BMP280;65640;43.154;25.658;2023-02-01T04:32:04;100791.22;;;3.13
76713;BMP280;65640;43.154;25.658;2023-02-01T04:34:30;100788.44;;;3.08
76713;BMP280;65640;43.154;25.658;2023-02-01T04:36:55;100787.25;;;3.04
76713;BMP280;65640;43.154;25.658;2023-02-01T04:39:21;100792.44;;;3.04
76713;BMP280;65640;43.154;25.658;2023-02-01T04:41:46;100795.63;;;3.00
76713;BMP280;65640;43.154;25.658;2023-02-01T04:44:16;100796.22;;;2.95
76713;BMP280;65640;43.154;25.658;2023-02-01T04:46:43;100788.25;;;2.97
76713;BMP280;65640;43.154;25.658;2023-02-01T04:49:09;100788.25;;;2.97
76713;BMP280;65640;43.154;25.658;2023-02-01T04:51:35;100789.47;;;2.94
76713;BMP280;65640;43.154;25.658;2023-02-01T04:54:00;100792.31;;;2.86
76713;BMP280;65640;43.154;25.658;2023-02-01T04:56:26;100797.28;;;2.74
76713;BMP280;65640;43.154;25.658;2023-02-01T04:58:51;100795.69;;;2.80
76713;BMP280;65640;43.154;25.658;2023-02-01T05:01:17;100797.91;;;2.70
76713;BMP280;65640;43.154;25.658;2023-02-01T05:03:42;100801.31;;;2.70
76713;BMP280;65640;43.154;25.658;2023-02-01T05:06:08;100798.16;;;2.62
76713;BMP280;65640;43.154;25.658;2023-02-01T05:08:33;100797.34;;;2.61
76713;BMP280;65640;43.154;25.658;2023-02-01T05:10:59;100798.16;;;2.55
76713;BMP280;65640;43.154;25.658;2023-02-01T05:13:24;100796.97;;;2.58
76713;BMP280;65640;43.154;25.658;2023-02-01T05:16:08;100798.56;;;2.59
76713;BMP280;65640;43.154;25.658;2023-02-01T05:18:34;100800.94;;;2.54
76713;BMP280;65640;43.154;25.658;2023-02-01T05:20:59;100802.13;;;2.58
76713;BMP280;65640;43.154;25.658;2023-02-01T05:23:24;100801.13;;;2.52
76713;BMP280;65640;43.154;25.658;2023-02-01T05:25:50;100802.91;;;2.52
76713;BMP280;65640;43.154;25.658;2023-02-01T05:28:15;100809.50;;;2.48
76713;BMP280;65640;43.154;25.658;2023-02-01T05:30:41;100807.31;;;2.44
76713;BMP280;65640;43.154;25.658;2023-02-01T05:33:06;100805.72;;;2.43
76713;BMP280;65640;43.154;25.658;2023-02-01T05:35:32;100811.69;;;2.37
76713;BMP280;65640;43.154;25.658;2023-02-01T05:37:57;100818.44;;;2.38
76713;BMP280;65640;43.154;25.658;2023-02-01T05:40:23;100820.81;;;2.33
76713;BMP280;65640;43.154;25.658;2023-02-01T05:42:48;100826.38;;;2.30
76713;BMP280;65640;43.154;25.658;2023-02-01T05:45:14;100822.44;;;2.21
76713;BMP280;65640;43.154;25.658;2023-02-01T05:47:39;100822.44;;;2.28
76713;BMP280;65640;43.154;25.658;2023-02-01T05:50:05;100822.22;;;2.29
76713;BMP280;65640;43.154;25.658;2023-02-01T05:52:31;100826.38;;;2.30
76713;BMP280;65640;43.154;25.658;2023-02-01T05:54:57;100832.94;;;2.26
76713;BMP280;65640;43.154;25.658;2023-02-01T05:57:22;100828.81;;;2.25
76713;BMP280;65640;43.154;25.658;2023-02-01T05:59:48;100831.59;;;2.24
76713;BMP280;65640;43.154;25.658;2023-02-01T06:02:14;100828.00;;;2.18
76713;BMP280;65640;43.154;25.658;2023-02-01T06:04:40;100825.03;;;2.21
76713;BMP280;65640;43.154;25.658;2023-02-01T06:07:07;100820.41;;;2.30
76713;BMP280;65640;43.154;25.658;2023-02-01T06:09:33;100820.03;;;2.33
76713;BMP280;65640;43.154;25.658;2023-02-01T06:11:59;100820.63;;;2.35
76713;BMP280;65640;43.154;25.658;2023-02-01T06:14:26;100829.38;;;2.40
76713;BMP280;65640;43.154;25.658;2023-02-01T06:16:53;100824.81;;;2.42
76713;BMP280;65640;43.154;25.658;2023-02-01T06:19:18;100829.75;;;2.51
76713;BMP280;65640;43.154;25.658;2023-02-01T06:21:44;100838.09;;;2.53
76713;BMP280;65640;43.154;25.658;2023-02-01T06:24:09;100832.13;;;2.59
76713;BMP280;65640;43.154;25.658;2023-02-01T06:26:35;100832.75;;;2.61
76713;BMP280;65640;43.154;25.658;2023-02-01T06:29:01;100835.69;;;2.71
76713;BMP280;65640;43.154;25.658;2023-02-01T06:31:26;100840.25;;;2.75
76713;BMP280;65640;43.154;25.658;2023-02-01T06:33:52;100840.63;;;2.92
76713;BMP280;65640;43.154;25.658;2023-02-01T06:36:18;100831.41;;;2.96
76713;BMP280;65640;43.154;25.658;2023-02-01T06:38:47;100828.81;;;3.03
76713;BMP280;65640;43.154;25.658;2023-02-01T06:41:13;100833.41;;;3.07
76713;BMP280;65640;43.154;25.658;2023-02-01T06:43:38;100814.69;;;3.12
76713;BMP280;65640;43.154;25.658;2023-02-01T06:46:09;100825.75;;;3.26
76713;BMP280;65640;43.154;25.658;2023-02-01T06:48:35;100826.72;;;3.31
76713;BMP280;65640;43.154;25.658;2023-02-01T06:51:00;100830.09;;;3.38
76713;BMP280;65640;43.154;25.658;2023-02-01T06:53:26;100822.47;;;3.43
76713;BMP280;65640;43.154;25.658;2023-02-01T06:56:00;100824.47;;;3.48
76713;BMP280;65640;43.154;25.658;2023-02-01T06:58:32;100832.59;;;3.51
76713;BMP280;65640;43.154;25.658;2023-02-01T07:01:04;100833.97;;;3.54
76713;BMP280;65640;43.154;25.658;2023-02-01T07:03:30;100842.31;;;3.56
76713;BMP280;65640;43.154;25.658;2023-02-01T07:05:56;100833.50;;;3.64
76713;BMP280;65640;43.154;25.658;2023-02-01T07:08:24;100845.63;;;3.70
76713;BMP280;65640;43.154;25.658;2023-02-01T07:10:50;100845.97;;;3.73
76713;BMP280;65640;43.154;25.658;2023-02-01T07:13:15;100841.56;;;3.80
76713;BMP280;65640;43.154;25.658;2023-02-01T07:15:40;100853.66;;;3.86
76713;BMP280;65640;43.154;25.658;2023-02-01T07:18:06;100858.81;;;3.93
76713;BMP280;65640;43.154;25.658;2023-02-01T07:20:31;100856.75;;;4.02
76713;BMP280;65640;43.154;25.658;2023-02-01T07:22:57;100853.91;;;4.10
76713;BMP280;65640;43.154;25.658;2023-02-01T07:25:23;100857.00;;;4.18
76713;BMP280;65640;43.154;25.658;2023-02-01T07:27:48;100862.19;;;4.18
76713;BMP280;65640;43.154;25.658;2023-02-01T07:30:14;100863.06;;;4.12
76713;BMP280;65640;43.154;25.658;2023-02-01T07:32:39;100857.06;;;4.12
76713;BMP280;65640;43.154;25.658;2023-02-01T07:35:05;100851.81;;;4.18
76713;BMP280;65640;43.154;25.658;2023-02-01T07:37:30;100849.63;;;4.22
76713;BMP280;65640;43.154;25.658;2023-02-01T07:39:56;100855.00;;;4.20
76713;BMP280;65640;43.154;25.658;2023-02-01T07:42:21;100857.81;;;4.19
76713;BMP280;65640;43.154;25.658;2023-02-01T07:44:47;100854.59;;;4.23
76713;BMP280;65640;43.154;25.658;2023-02-01T07:47:12;100854.97;;;4.27
76713;BMP280;65640;43.154;25.658;2023-02-01T07:49:37;100847.53;;;4.31
76713;BMP280;65640;43.154;25.658;2023-02-01T07:52:03;100848.19;;;4.26
76713;BMP280;65640;43.154;25.658;2023-02-01T07:54:28;100845.75;;;4.31
76713;BMP280;65640;43.154;25.658;2023-02-01T07:56:54;100848.91;;;4.33
76713;BMP280;65640;43.154;25.658;2023-02-01T07:59:19;100851.66;;;4.38
76713;BMP280;65640;43.154;25.658;2023-02-01T08:01:44;100845.94;;;4.54
76713;BMP280;65640;43.154;25.658;2023-02-01T08:04:12;100840.63;;;4.68
76713;BMP280;65640;43.154;25.658;2023-02-01T08:06:38;100838.59;;;4.88
76713;BMP280;65640;43.154;25.658;2023-02-01T08:09:05;100831.53;;;4.95
76713;BMP280;65640;43.154;25.658;2023-02-01T08:11:31;100833.16;;;5.08
76713;BMP280;65640;43.154;25.658;2023-02-01T08:13:57;100839.09;;;5.26
76713;BMP280;65640;43.154;25.658;2023-02-01T08:16:23;100834.56;;;5.40
76713;BMP280;65640;43.154;25.658;2023-02-01T08:18:49;100840.97;;;5.37
76713;BMP280;65640;43.154;25.658;2023-02-01T08:21:20;100842.00;;;5.48
76713;BMP280;65640;43.154;25.658;2023-02-01T08:23:47;100842.50;;;5.68
76713;BMP280;65640;43.154;25.658;2023-02-01T08:26:25;100855.94;;;5.77
76713;BMP280;65640;43.154;25.658;2023-02-01T08:28:58;100848.50;;;5.69
76713;BMP280;65640;43.154;25.658;2023-02-01T08:31:26;100849.03;;;5.59
76713;BMP280;65640;43.154;25.658;2023-02-01T08:33:57;100845.31;;;5.67
76713;BMP280;65640;43.154;25.658;2023-02-01T08:36:24;100857.53;;;5.78
76713;BMP280;65640;43.154;25.658;2023-02-01T08:38:50;100848.16;;;5.77
76713;BMP280;65640;43.154;25.658;2023-02-01T08:41:21;100844.66;;;5.71
76713;BMP280;65640;43.154;25.658;2023-02-01T08:43:47;100845.13;;;5.80
76713;BMP280;65640;43.154;25.658;2023-02-01T08:46:13;100848.41;;;5.87
76713;BMP280;65640;43.154;25.658;2023-02-01T08:48:39;100841.72;;;5.91
76713;BMP280;65640;43.154;25.658;2023-02-01T08:51:07;100848.66;;;5.97
76713;BMP280;65640;43.154;25.658;2023-02-01T08:53:33;100858.47;;;6.19
76713;BMP280;65640;43.154;25.658;2023-02-01T08:55:59;100857.56;;;6.13
76713;BMP280;65640;43.154;25.658;2023-02-01T08:58:25;100844.34;;;5.91
76713;BMP280;65640;43.154;25.658;2023-02-01T09:00:51;100845.03;;;5.87
76713;BMP280;65640;43.154;25.658;2023-02-01T09:03:16;100848.53;;;6.16
76713;BMP280;65640;43.154;25.658;2023-02-01T09:05:42;100855.31;;;6.17
76713;BMP280;65640;43.154;25.658;2023-02-01T09:08:07;100856.56;;;6.14
76713;BMP280;65640;43.154;25.658;2023-02-01T09:10:34;100847.97;;;6.25
76713;BMP280;65640;43.154;25.658;2023-02-01T09:13:00;100851.69;;;6.41
76713;BMP280;65640;43.154;25.658;2023-02-01T09:15:25;100836.06;;;6.64
76713;BMP280;65640;43.154;25.658;2023-02-01T09:17:51;100839.22;;;6.66
76713;BMP280;65640;43.154;25.658;2023-02-01T09:20:16;100833.16;;;6.89
76713;BMP280;65640;43.154;25.658;2023-02-01T09:22:44;100850.41;;;7.07
76713;BMP280;65640;43.154;25.658;2023-02-01T09:25:09;100830.66;;;6.94
76713;BMP280;65640;43.154;25.658;2023-02-01T09:27:35;100824.25;;;7.02
76713;BMP280;65640;43.154;25.658;2023-02-01T09:30:01;100836.91;;;6.81
76713;BMP280;65640;43.154;25.658;2023-02-01T09:32:26;100829.31;;;6.92
76713;BMP280;65640;43.154;25.658;2023-02-01T09:34:52;100836.66;;;6.95
76713;BMP280;65640;43.154;25.658;2023-02-01T09:37:18;100830.22;;;6.85
76713;BMP280;65640;43.154;25.658;2023-02-01T09:39:44;100844.16;;;6.79
76713;BMP280;65640;43.154;25.658;2023-02-01T09:42:37;100826.31;;;6.71
76713;BMP280;65640;43.154;25.658;2023-02-01T09:47:46;100814.50;;;7.09
76713;BMP280;65640;43.154;25.658;2023-02-01T09:50:18;100801.31;;;6.99
76713;BMP280;65640;43.154;25.658;2023-02-01T09:52:50;100806.97;;;6.96
76713;BMP280;65640;43.154;25.658;2023-02-01T09:55:30;100797.44;;;7.01
76713;BMP280;65640;43.154;25.658;2023-02-01T10:01:00;100792.72;;;7.43
76713;BMP280;65640;43.154;25.658;2023-02-01T10:03:32;100785.84;;;7.37
76713;BMP280;65640;43.154;25.658;2023-02-01T10:25:14;100739.13;;;7.69
76713;BMP280;65640;43.154;25.658;2023-02-01T10:27:43;100751.22;;;7.75
76713;BMP280;65640;43.154;25.658;2023-02-01T10:30:25;100739.47;;;7.73
76713;BMP280;65640;43.154;25.658;2023-02-01T10:32:56;100729.47;;;7.64
76713;BMP280;65640;43.154;25.658;2023-02-01T10:35:27;100730.34;;;7.37
76713;BMP280;65640;43.154;25.658;2023-02-01T10:37:53;100724.38;;;7.19
76713;BMP280;65640;43.154;25.658;2023-02-01T10:40:23;100715.22;;;7.17
76713;BMP280;65640;43.154;25.658;2023-02-01T10:42:52;100710.03;;;7.17
76713;BMP280;65640;43.154;25.658;2023-02-01T10:45:21;100704.31;;;7.20
76713;BMP280;65640;43.154;25.658;2023-02-01T10:47:52;100701.47;;;7.21
76713;BMP280;65640;43.154;25.658;2023-02-01T10:50:35;100697.66;;;7.46
76713;BMP280;65640;43.154;25.658;2023-02-01T10:53:30;100688.13;;;7.73
76713;BMP280;65640;43.154;25.658;2023-02-01T10:55:56;100681.16;;;8.22
76713;BMP280;65640;43.154;25.658;2023-02-01T10:58:32;100665.97;;;8.41
76713;BMP280;65640;43.154;25.658;2023-02-01T11:06:02;100669.19;;;8.80
76713;BMP280;65640;43.154;25.658;2023-02-01T11:08:29;100664.69;;;8.75
76713;BMP280;65640;43.154;25.658;2023-02-01T11:11:01;100663.22;;;8.58
76713;BMP280;65640;43.154;25.658;2023-02-01T11:13:33;100657.63;;;8.44
76713;BMP280;65640;43.154;25.658;2023-02-01T11:16:03;100661.78;;;8.40
76713;BMP280;65640;43.154;25.658;2023-02-01T11:18:32;100645.19;;;8.51
76713;BMP280;65640;43.154;25.658;2023-02-01T11:21:00;100643.56;;;8.45
76713;BMP280;65640;43.154;25.658;2023-02-01T11:23:27;100630.69;;;8.33
76713;BMP280;65640;43.154;25.658;2023-02-01T11:25:56;100632.88;;;8.46
76713;BMP280;65640;43.154;25.658;2023-02-01T11:28:33;100633.88;;;8.72
76713;BMP280;65640;43.154;25.658;2023-02-01T11:31:05;100632.09;;;8.78
76713;BMP280;65640;43.154;25.658;2023-02-01T11:33:35;100642.53;;;8.83
76713;BMP280;65640;43.154;25.658;2023-02-01T11:36:13;100633.63;;;8.74
76713;BMP280;65640;43.154;25.658;2023-02-01T11:38:39;100621.78;;;8.61
76713;BMP280;65640;43.154;25.658;2023-02-01T11:41:21;100617.94;;;8.69
76713;BMP280;65640;43.154;25.658;2023-02-01T11:43:55;100618.34;;;8.93
76713;BMP280;65640;43.154;25.658;2023-02-01T11:46:24;100613.00;;;9.14
76713;BMP280;65640;43.154;25.658;2023-02-01T11:48:53;100609.91;;;9.17
76713;BMP280;65640;43.154;25.658;2023-02-01T11:52:02;100590.59;;;9.29
76713;BMP280;65640;43.154;25.658;2023-02-01T11:54:27;100602.47;;;9.46
76713;BMP280;65640;43.154;25.658;2023-02-01T11:57:08;100599.09;;;9.61
76713;BMP280;65640;43.154;25.658;2023-02-01T12:00:40;100584.66;;;9.43
76713;BMP280;65640;43.154;25.658;2023-02-01T12:08:14;100588.13;;;9.64
76713;BMP280;65640;43.154;25.658;2023-02-01T12:10:48;100574.28;;;9.69
76713;BMP280;65640;43.154;25.658;2023-02-01T12:13:24;100578.72;;;9.73
76713;BMP280;65640;43.154;25.658;2023-02-01T12:43:09;100584.50;;;9.08
76713;BMP280;65640;43.154;25.658;2023-02-01T12:45:42;100584.66;;;8.91
76713;BMP280;65640;43.154;25.658;2023-02-01T12:48:21;100598.97;;;8.78
76713;BMP280;65640;43.154;25.658;2023-02-01T12:50:57;100587.91;;;8.66
76713;BMP280;65640;43.154;25.658;2023-02-01T12:58:58;100590.13;;;8.48
76713;BMP280;65640;43.154;25.658;2023-02-01T13:01:42;100592.41;;;8.44
76713;BMP280;65640;43.154;25.658;2023-02-01T13:04:19;100589.47;;;8.35
76713;BMP280;65640;43.154;25.658;2023-02-01T13:06:47;100593.66;;;8.36
76713;BMP280;65640;43.154;25.658;2023-02-01T13:09:35;100595.81;;;8.44
76713;BMP280;65640;43.154;25.658;2023-02-01T13:12:10;100592.66;;;8.42
76713;BMP280;65640;43.154;25.658;2023-02-01T13:14:55;100596.81;;;8.38
76713;BMP280;65640;43.154;25.658;2023-02-01T13:17:27;100598.59;;;8.33
76713;BMP280;65640;43.154;25.658;2023-02-01T13:20:45;100591.56;;;8.33
76713;BMP280;65640;43.154;25.658;2023-02-01T13:22:59;100589.97;;;8.32
76713;BMP280;65640;43.154;25.658;2023-02-01T13:25:40;100597.53;;;8.29
76713;BMP280;65640;43.154;25.658;2023-02-01T13:28:20;100588.94;;;8.33
76713;BMP280;65640;43.154;25.658;2023-02-01T13:42:03;100590.81;;;8.70
76713;BMP280;65640;43.154;25.658;2023-02-01T13:44:51;100595.47;;;8.68
76713;BMP280;65640;43.154;25.658;2023-02-01T13:47:33;100594.69;;;8.67
76713;BMP280;65640;43.154;25.658;2023-02-01T13:50:11;100583.94;;;8.64
76713;BMP280;65640;43.154;25.658;2023-02-01T13:52:43;100591.25;;;8.62
76713;BMP280;65640;43.154;25.658;2023-02-01T13:55:19;100586.53;;;8.59
76713;BMP280;65640;43.154;25.658;2023-02-01T13:57:50;100584.47;;;8.61
76713;BMP280;65640;43.154;25.658;2023-02-01T14:00:36;100588.34;;;8.58
76713;BMP280;65640;43.154;25.658;2023-02-01T14:23:45;100587.16;;;8.71
76713;BMP280;65640;43.154;25.658;2023-02-01T14:26:23;100581.34;;;8.64
76713;BMP280;65640;43.154;25.658;2023-02-01T14:29:02;100587.59;;;8.63
76713;BMP280;65640;43.154;25.658;2023-02-01T14:34:00;100593.56;;;8.58
76713;BMP280;65640;43.154;25.658;2023-02-01T14:36:40;100594.31;;;8.54
76713;BMP280;65640;43.154;25.658;2023-02-01T14:39:19;100594.78;;;8.45
76713;BMP280;65640;43.154;25.658;2023-02-01T14:41:46;100594.25;;;8.43
76713;BMP280;65640;43.154;25.658;2023-02-01T14:44:21;100604.09;;;8.36
76713;BMP280;65640;43.154;25.658;2023-02-01T14:53:00;100603.88;;;8.11
76713;BMP280;65640;43.154;25.658;2023-02-01T15:01:01;100618.22;;;7.87
76713;BMP280;65640;43.154;25.658;2023-02-01T15:06:32;100627.66;;;7.71
76713;BMP280;65640;43.154;25.658;2023-02-01T15:09:03;100641.44;;;7.66
76713;BMP280;65640;43.154;25.658;2023-02-01T15:11:29;100630.63;;;7.58
76713;BMP280;65640;43.154;25.658;2023-02-01T15:13:55;100638.16;;;7.54
76713;BMP280;65640;43.154;25.658;2023-02-01T15:16:24;100636.50;;;7.48
76713;BMP280;65640;43.154;25.658;2023-02-01T15:18:50;100638.97;;;7.38
76713;BMP280;65640;43.154;25.658;2023-02-01T15:21:21;100636.78;;;7.30
76713;BMP280;65640;43.154;25.658;2023-02-01T15:23:47;100639.00;;;7.21
76713;BMP280;65640;43.154;25.658;2023-02-01T15:26:31;100638.84;;;7.11
76713;BMP280;65640;43.154;25.658;2023-02-01T15:28:59;100628.91;;;7.08
76713;BMP280;65640;43.154;25.658;2023-02-01T15:31:43;100631.78;;;7.07
76713;BMP280;65640;43.154;25.658;2023-02-01T15:34:10;100629.41;;;7.05
76713;BMP280;65640;43.154;25.658;2023-02-01T15:36:36;100625.53;;;7.08
76713;BMP280;65640;43.154;25.658;2023-02-01T15:39:15;100626.69;;;7.00
76713;BMP280;65640;43.154;25.658;2023-02-01T15:41:57;100629.56;;;6.99
76713;BMP280;65640;43.154;25.658;2023-02-01T15:44:43;100635.78;;;6.98
76713;BMP280;65640;43.154;25.658;2023-02-01T15:47:17;100636.41;;;6.88
76713;BMP280;65640;43.154;25.658;2023-02-01T15:49:50;100630.88;;;6.84
76713;BMP280;65640;43.154;25.658;2023-02-01T15:52:23;100637.81;;;6.79
76713;BMP280;65640;43.154;25.658;2023-02-01T15:54:53;100642.16;;;6.73
76713;BMP280;65640;43.154;25.658;2023-02-01T15:57:23;100640.75;;;6.66
76713;BMP280;65640;43.154;25.658;2023-02-01T15:59:56;100640.88;;;6.59
76713;BMP280;65640;43.154;25.658;2023-02-01T16:02:32;100642.63;;;6.54
76713;BMP280;65640;43.154;25.658;2023-02-01T16:04:58;100641.88;;;6.58
76713;BMP280;65640;43.154;25.658;2023-02-01T16:07:29;100648.09;;;6.57
76713;BMP280;65640;43.154;25.658;2023-02-01T16:09:59;100648.53;;;6.49
76713;BMP280;65640;43.154;25.658;2023-02-01T16:12:28;100646.84;;;6.43
76713;BMP280;65640;43.154;25.658;2023-02-01T16:14:55;100653.53;;;6.39
76713;BMP280;65640;43.154;25.658;2023-02-01T16:17:20;100652.19;;;6.36
76713;BMP280;65640;43.154;25.658;2023-02-01T16:19:45;100654.09;;;6.41
76713;BMP280;65640;43.154;25.658;2023-02-01T16:22:11;100647.31;;;6.40
76713;BMP280;65640;43.154;25.658;2023-02-01T16:24:36;100646.97;;;6.36
76713;BMP280;65640;43.154;25.658;2023-02-01T16:27:02;100645.63;;;6.34
76713;BMP280;65640;43.154;25.658;2023-02-01T16:29:28;100647.16;;;6.30
76713;BMP280;65640;43.154;25.658;2023-02-01T16:31:53;100644.78;;;6.28
76713;BMP280;65640;43.154;25.658;2023-02-01T16:34:19;100646.69;;;6.21
76713;BMP280;65640;43.154;25.658;2023-02-01T16:36:48;100645.56;;;6.17
76713;BMP280;65640;43.154;25.658;2023-02-01T16:39:19;100637.47;;;6.13
76713;BMP280;65640;43.154;25.658;2023-02-01T16:41:45;100634.22;;;6.06
76713;BMP280;65640;43.154;25.658;2023-02-01T16:44:10;100635.72;;;6.02